sensor_id;sensor_type;location;lat;lon;timestamp;P1;durP1;ratioP1;P2;durP2;ratioP2
67164;SDS011;54093;50.014;19.984;2023-07-13T00:06:57;5.60;;;5.20;;
67164;SDS011;54093;50.014;19.984;2023-07-13T00:16:18;5.35;;;4.43;;
67164;SDS011;54093;50.014;19.984;2023-07-13T00:25:39;4.00;;;3.70;;
67164;SDS011;54093;50.014;19.984;2023-07-13T00:35:00;4.18;;;3.85;;
67164;SDS011;54093;50.014;19.984;2023-07-13T00:44:23;3.85;;;3.55;;
67164;SDS011;54093;50.014;19.984;2023-07-13T00:53:44;5.32;;;3.85;;
67164;SDS011;54093;50.014;19.984;2023-07-13T01:03:05;4.78;;;4.38;;
67164;SDS011;54093;50.014;19.984;2023-07-13T01:12:34;6.78;;;4.30;;
67164;SDS011;54093;50.014;19.984;2023-07-13T01:21:54;5.32;;;4.93;;
67164;SDS011;54093;50.014;19.984;2023-07-13T01:31:15;6.97;;;4.13;;
67164;SDS011;54093;50.014;19.984;2023-07-13T01:40:36;5.53;;;3.97;;
67164;SDS011;54093;50.014;19.984;2023-07-13T01:49:58;4.40;;;3.80;;
67164;SDS011;54093;50.014;19.984;2023-07-13T01:59:19;4.90;;;3.95;;
67164;SDS011;54093;50.014;19.984;2023-07-13T02:08:40;4.50;;;3.03;;
67164;SDS011;54093;50.014;19.984;2023-07-13T02:18:02;3.67;;;3.45;;
67164;SDS011;54093;50.014;19.984;2023-07-13T02:27:24;3.75;;;3.53;;
67164;SDS011;54093;50.014;19.984;2023-07-13T02:36:45;4.32;;;3.53;;
67164;SDS011;54093;50.014;19.984;2023-07-13T02:46:05;3.67;;;3.47;;
67164;SDS011;54093;50.014;19.984;2023-07-13T02:55:29;3.55;;;3.35;;
67164;SDS011;54093;50.014;19.984;2023-07-13T03:04:50;4.50;;;4.10;;
67164;SDS011;54093;50.014;19.984;2023-07-13T03:14:11;4.32;;;3.20;;
67164;SDS011;54093;50.014;19.984;2023-07-13T03:23:32;3.22;;;2.92;;
67164;SDS011;54093;50.014;19.984;2023-07-13T03:32:53;4.03;;;3.63;;
67164;SDS011;54093;50.014;19.984;2023-07-13T03:42:14;3.72;;;3.40;;
67164;SDS011;54093;50.014;19.984;2023-07-13T03:51:35;4.60;;;2.72;;
67164;SDS011;54093;50.014;19.984;2023-07-13T04:00:56;4.60;;;3.55;;
67164;SDS011;54093;50.014;19.984;2023-07-13T04:10:17;3.60;;;3.17;;
67164;SDS011;54093;50.014;19.984;2023-07-13T04:19:38;3.50;;;3.30;;
67164;SDS011;54093;50.014;19.984;2023-07-13T04:28:59;7.05;;;3.10;;
67164;SDS011;54093;50.014;19.984;2023-07-13T04:38:20;3.47;;;3.28;;
67164;SDS011;54093;50.014;19.984;2023-07-13T04:47:41;4.78;;;2.78;;
67164;SDS011;54093;50.014;19.984;2023-07-13T04:57:02;4.97;;;2.80;;
67164;SDS011;54093;50.014;19.984;2023-07-13T05:06:26;3.50;;;3.30;;
67164;SDS011;54093;50.014;19.984;2023-07-13T05:15:52;2.45;;;2.35;;
67164;SDS011;54093;50.014;19.984;2023-07-13T05:25:16;3.95;;;2.63;;
67164;SDS011;54093;50.014;19.984;2023-07-13T05:34:38;3.00;;;2.60;;
67164;SDS011;54093;50.014;19.984;2023-07-13T05:43:59;4.20;;;3.67;;
67164;SDS011;54093;50.014;19.984;2023-07-13T05:53:19;4.30;;;3.28;;
67164;SDS011;54093;50.014;19.984;2023-07-13T06:02:40;3.15;;;2.55;;
67164;SDS011;54093;50.014;19.984;2023-07-13T06:12:02;6.28;;;3.17;;
67164;SDS011;54093;50.014;19.984;2023-07-13T06:21:23;23.70;;;5.85;;
67164;SDS011;54093;50.014;19.984;2023-07-13T06:30:44;7.53;;;4.20;;
67164;SDS011;54093;50.014;19.984;2023-07-13T06:40:05;4.25;;;3.67;;
67164;SDS011;54093;50.014;19.984;2023-07-13T06:49:27;4.72;;;4.32;;
67164;SDS011;54093;50.014;19.984;2023-07-13T06:58:47;4.90;;;4.50;;
67164;SDS011;54093;50.014;19.984;2023-07-13T07:08:08;7.70;;;3.95;;
67164;SDS011;54093;50.014;19.984;2023-07-13T07:17:29;6.88;;;3.35;;
67164;SDS011;54093;50.014;19.984;2023-07-13T07:26:50;5.88;;;3.75;;
67164;SDS011;54093;50.014;19.984;2023-07-13T07:36:11;3.35;;;3.08;;
67164;SDS011;54093;50.014;19.984;2023-07-13T07:45:32;4.32;;;3.25;;
67164;SDS011;54093;50.014;19.984;2023-07-13T07:54:53;8.48;;;3.20;;
67164;SDS011;54093;50.014;19.984;2023-07-13T08:04:14;4.28;;;3.97;;
67164;SDS011;54093;50.014;19.984;2023-07-13T08:13:35;6.07;;;3.67;;
67164;SDS011;54093;50.014;19.984;2023-07-13T08:22:55;4.00;;;3.55;;
67164;SDS011;54093;50.014;19.984;2023-07-13T08:32:17;4.18;;;3.80;;
67164;SDS011;54093;50.014;19.984;2023-07-13T08:41:39;9.52;;;3.08;;
67164;SDS011;54093;50.014;19.984;2023-07-13T09:10:41;4.67;;;2.73;;
67164;SDS011;54093;50.014;19.984;2023-07-13T09:20:10;6.05;;;2.80;;
67164;SDS011;54093;50.014;19.984;2023-07-13T09:29:44;3.42;;;3.22;;
67164;SDS011;54093;50.014;19.984;2023-07-13T09:39:12;8.07;;;3.28;;
67164;SDS011;54093;50.014;19.984;2023-07-13T09:48:36;3.20;;;3.00;;
67164;SDS011;54093;50.014;19.984;2023-07-13T09:57:57;2.95;;;2.78;;
67164;SDS011;54093;50.014;19.984;2023-07-13T10:07:18;2.85;;;2.53;;
67164;SDS011;54093;50.014;19.984;2023-07-13T10:16:44;2.70;;;2.50;;
67164;SDS011;54093;50.014;19.984;2023-07-13T10:26:07;3.10;;;2.80;;
67164;SDS011;54093;50.014;19.984;2023-07-13T10:35:35;3.58;;;2.80;;
67164;SDS011;54093;50.014;19.984;2023-07-13T10:44:56;4.45;;;3.30;;
67164;SDS011;54093;50.014;19.984;2023-07-13T10:54:21;3.65;;;3.35;;
67164;SDS011;54093;50.014;19.984;2023-07-13T11:32:32;4.78;;;4.35;;
67164;SDS011;54093;50.014;19.984;2023-07-13T11:41:54;4.82;;;4.38;;
67164;SDS011;54093;50.014;19.984;2023-07-13T11:51:21;1.77;;;1.67;;
67164;SDS011;54093;50.014;19.984;2023-07-13T12:00:53;1.77;;;1.67;;
67164;SDS011;54093;50.014;19.984;2023-07-13T12:10:25;2.17;;;1.80;;
67164;SDS011;54093;50.014;19.984;2023-07-13T12:19:51;1.80;;;1.70;;
67164;SDS011;54093;50.014;19.984;2023-07-13T12:29:15;1.50;;;1.35;;
67164;SDS011;54093;50.014;19.984;2023-07-13T12:38:37;1.83;;;1.73;;
67164;SDS011;54093;50.014;19.984;2023-07-13T12:48:04;3.60;;;2.03;;
67164;SDS011;54093;50.014;19.984;2023-07-13T12:57:29;1.63;;;1.52;;
67164;SDS011;54093;50.014;19.984;2023-07-13T13:07:00;1.60;;;1.50;;
67164;SDS011;54093;50.014;19.984;2023-07-13T13:25:52;1.42;;;1.42;;
67164;SDS011;54093;50.014;19.984;2023-07-13T13:35:17;1.70;;;1.60;;
67164;SDS011;54093;50.014;19.984;2023-07-13T13:44:39;1.67;;;1.58;;
67164;SDS011;54093;50.014;19.984;2023-07-13T13:54:03;1.75;;;1.65;;
67164;SDS011;54093;50.014;19.984;2023-07-13T14:03:29;1.85;;;1.60;;
67164;SDS011;54093;50.014;19.984;2023-07-13T14:12:51;2.30;;;2.20;;
67164;SDS011;54093;50.014;19.984;2023-07-13T14:22:13;1.75;;;1.70;;
67164;SDS011;54093;50.014;19.984;2023-07-13T14:31:34;5.47;;;2.50;;
67164;SDS011;54093;50.014;19.984;2023-07-13T14:40:55;2.20;;;2.00;;
67164;SDS011;54093;50.014;19.984;2023-07-13T14:50:20;2.03;;;1.92;;
67164;SDS011;54093;50.014;19.984;2023-07-13T14:59:45;1.95;;;1.85;;
67164;SDS011;54093;50.014;19.984;2023-07-13T15:09:08;2.35;;;2.15;;
67164;SDS011;54093;50.014;19.984;2023-07-13T15:18:34;2.25;;;2.10;;
67164;SDS011;54093;50.014;19.984;2023-07-13T15:27:57;2.55;;;2.13;;
67164;SDS011;54093;50.014;19.984;2023-07-13T15:37:18;2.63;;;2.50;;
67164;SDS011;54093;50.014;19.984;2023-07-13T15:46:41;2.85;;;2.70;;
67164;SDS011;54093;50.014;19.984;2023-07-13T15:56:37;2.40;;;2.30;;
67164;SDS011;54093;50.014;19.984;2023-07-13T16:05:55;3.67;;;3.47;;
67164;SDS011;54093;50.014;19.984;2023-07-13T16:15:18;3.92;;;3.72;;
67164;SDS011;54093;50.014;19.984;2023-07-13T16:24:40;2.75;;;2.65;;
67164;SDS011;54093;50.014;19.984;2023-07-13T16:34:04;2.88;;;2.67;;
67164;SDS011;54093;50.014;19.984;2023-07-13T16:43:25;4.10;;;3.80;;
67164;SDS011;54093;50.014;19.984;2023-07-13T16:52:46;4.07;;;2.85;;
67164;SDS011;54093;50.014;19.984;2023-07-13T17:02:23;3.20;;;3.08;;
67164;SDS011;54093;50.014;19.984;2023-07-13T17:11:51;3.88;;;3.58;;
67164;SDS011;54093;50.014;19.984;2023-07-13T17:21:15;3.00;;;2.80;;
67164;SDS011;54093;50.014;19.984;2023-07-13T17:30:37;5.35;;;2.90;;
67164;SDS011;54093;50.014;19.984;2023-07-13T17:40:00;3.00;;;2.80;;
67164;SDS011;54093;50.014;19.984;2023-07-13T17:49:22;2.53;;;2.42;;
67164;SDS011;54093;50.014;19.984;2023-07-13T17:59:07;5.38;;;2.70;;
67164;SDS011;54093;50.014;19.984;2023-07-13T18:08:29;3.13;;;2.80;;
67164;SDS011;54093;50.014;19.984;2023-07-13T18:17:51;4.70;;;2.50;;
67164;SDS011;54093;50.014;19.984;2023-07-13T18:27:12;2.50;;;2.40;;
67164;SDS011;54093;50.014;19.984;2023-07-13T18:36:33;5.55;;;3.03;;
67164;SDS011;54093;50.014;19.984;2023-07-13T18:45:56;5.20;;;2.70;;
67164;SDS011;54093;50.014;19.984;2023-07-13T18:55:21;5.15;;;2.72;;
67164;SDS011;54093;50.014;19.984;2023-07-13T19:04:45;2.20;;;2.10;;
67164;SDS011;54093;50.014;19.984;2023-07-13T19:14:15;2.47;;;2.35;;
67164;SDS011;54093;50.014;19.984;2023-07-13T19:23:41;2.60;;;2.50;;
67164;SDS011;54093;50.014;19.984;2023-07-13T19:33:05;4.20;;;2.88;;
67164;SDS011;54093;50.014;19.984;2023-07-13T19:42:27;8.57;;;2.97;;
67164;SDS011;54093;50.014;19.984;2023-07-13T19:51:49;2.90;;;2.70;;
67164;SDS011;54093;50.014;19.984;2023-07-13T20:01:10;3.55;;;3.40;;
67164;SDS011;54093;50.014;19.984;2023-07-13T20:10:31;4.38;;;3.55;;
67164;SDS011;54093;50.014;19.984;2023-07-13T20:19:54;3.50;;;3.20;;
67164;SDS011;54093;50.014;19.984;2023-07-13T20:29:15;4.75;;;4.40;;
67164;SDS011;54093;50.014;19.984;2023-07-13T20:38:36;4.25;;;3.95;;
67164;SDS011;54093;50.014;19.984;2023-07-13T20:47:59;8.50;;;4.18;;
67164;SDS011;54093;50.014;19.984;2023-07-13T20:57:30;5.20;;;4.20;;
67164;SDS011;54093;50.014;19.984;2023-07-13T21:06:53;4.03;;;3.75;;
67164;SDS011;54093;50.014;19.984;2023-07-13T21:16:25;4.03;;;3.83;;
67164;SDS011;54093;50.014;19.984;2023-07-13T21:25:48;4.65;;;4.28;;
67164;SDS011;54093;50.014;19.984;2023-07-13T21:35:16;5.70;;;5.25;;
67164;SDS011;54093;50.014;19.984;2023-07-13T21:44:42;12.48;;;6.65;;
67164;SDS011;54093;50.014;19.984;2023-07-13T21:54:05;8.93;;;4.78;;
67164;SDS011;54093;50.014;19.984;2023-07-13T22:03:36;4.47;;;4.25;;
67164;SDS011;54093;50.014;19.984;2023-07-13T22:12:58;4.65;;;4.35;;
67164;SDS011;54093;50.014;19.984;2023-07-13T22:22:18;7.22;;;6.45;;
67164;SDS011;54093;50.014;19.984;2023-07-13T22:31:39;6.38;;;5.80;;
67164;SDS011;54093;50.014;19.984;2023-07-13T22:41:01;7.35;;;5.00;;
67164;SDS011;54093;50.014;19.984;2023-07-13T22:50:22;5.63;;;5.28;;
67164;SDS011;54093;50.014;19.984;2023-07-13T22:59:43;7.97;;;5.65;;
67164;SDS011;54093;50.014;19.984;2023-07-13T23:09:04;6.85;;;5.22;;
67164;SDS011;54093;50.014;19.984;2023-07-13T23:18:26;6.47;;;6.00;;
67164;SDS011;54093;50.014;19.984;2023-07-13T23:27:48;6.05;;;5.15;;
67164;SDS011;54093;50.014;19.984;2023-07-13T23:37:16;5.50;;;5.15;;
67164;SDS011;54093;50.014;19.984;2023-07-13T23:56:19;5.55;;;5.15;;
